createdAt,value
2022-08-14T02:52:55.845Z,100560.31
2022-08-14T02:54:03.693Z,100564.22
2022-08-14T02:55:07.526Z,100564.28
2022-08-14T02:57:13.857Z,100572.56
2022-08-14T02:58:08.449Z,100566.41
2022-08-14T02:59:14.373Z,100572.56
2022-08-14T03:00:25.883Z,100569.81
2022-08-14T03:01:31.280Z,100572.50
2022-08-14T03:02:56.611Z,100582.38
2022-08-14T03:04:02.043Z,100572.19
2022-08-14T03:05:05.136Z,100575.50
2022-08-14T03:06:10.249Z,100572.38
2022-08-14T03:07:12.864Z,100571.38
2022-08-14T03:08:22.175Z,100577.66
2022-08-14T03:09:25.600Z,100576.34
2022-08-14T03:10:48.760Z,100575.75
2022-08-14T03:11:52.436Z,100580.56
2022-08-14T03:12:57.553Z,100569.22
2022-08-14T03:13:59.942Z,100568.44
2022-08-14T03:15:14.006Z,100574.50
2022-08-14T03:16:26.837Z,100566.47
2022-08-14T03:17:32.064Z,100578.97
2022-08-14T03:18:54.524Z,100574.75
2022-08-14T03:19:56.793Z,100575.25
2022-08-14T03:21:11.514Z,100578.63
2022-08-14T03:22:27.744Z,100573.53
2022-08-14T03:23:39.146Z,100569.25
2022-08-14T03:24:41.803Z,100572.28
2022-08-14T03:25:44.536Z,100572.63
2022-08-14T03:26:48.342Z,100570.91
2022-08-14T03:27:58.314Z,100567.06
2022-08-14T03:29:02.671Z,100570.72
2022-08-14T03:30:05.778Z,100569.03
2022-08-14T03:31:24.423Z,100569.78
2022-08-14T03:32:33.633Z,100569.38
2022-08-14T03:33:40.178Z,100568.81
2022-08-14T03:34:48.372Z,100561.91
2022-08-14T03:36:05.114Z,100565.84
2022-08-14T03:37:50.883Z,100573.72
2022-08-14T03:39:12.321Z,100568.56
2022-08-14T03:39:58.203Z,100570.16
2022-08-14T03:41:00.623Z,100567.78
2022-08-14T03:42:03.380Z,100566.78
2022-08-14T03:43:10.269Z,100564.31
2022-08-14T03:45:18.747Z,100568.72
2022-08-14T03:45:37.405Z,100565.53
2022-08-14T03:46:54.667Z,100569.94
2022-08-14T03:48:01.654Z,100569.16
2022-08-14T03:49:06.305Z,100564.41
2022-08-14T03:50:15.253Z,100566.88
2022-08-14T03:51:30.587Z,100570.06
2022-08-14T03:52:40.498Z,100577.25
2022-08-14T03:53:44.847Z,100570.06
2022-08-14T03:54:54.511Z,100561.28
2022-08-14T03:56:00.602Z,100567.78
2022-08-14T03:57:03.479Z,100578.22
2022-08-14T03:58:10.057Z,100569.88
2022-08-14T03:59:17.698Z,100573.72
2022-08-14T04:00:43.702Z,100570.69
2022-08-14T04:01:45.853Z,100572.28
2022-08-14T04:03:06.598Z,100573.28
2022-08-14T04:04:16.438Z,100582.41
2022-08-14T04:05:21.557Z,100574.66
2022-08-14T04:06:28.275Z,100577.19
2022-08-14T04:07:35.964Z,100576.19
2022-08-14T04:08:41.889Z,100567.56
2022-08-14T04:09:44.265Z,100575.91
2022-08-14T04:10:47.743Z,100578.28
2022-08-14T04:11:50.187Z,100580.03
2022-08-14T04:12:53.449Z,100577.59
2022-08-14T04:13:57.307Z,100582.72
2022-08-14T04:15:01.871Z,100581.53
2022-08-14T04:16:12.333Z,100584.16
2022-08-14T04:17:15.083Z,100578.91
2022-08-14T04:18:18.981Z,100585.00
2022-08-14T04:19:24.178Z,100583.44
2022-08-14T04:20:27.014Z,100588.22
2022-08-14T04:21:30.793Z,100582.97
2022-08-14T04:22:44.390Z,100583.09
2022-08-14T04:23:49.012Z,100580.78
2022-08-14T04:25:03.323Z,100581.47
2022-08-14T04:26:14.452Z,100584.63
2022-08-14T04:27:17.336Z,100589.69
2022-08-14T04:29:08.998Z,100580.88
2022-08-14T04:29:44.917Z,100577.38
2022-08-14T04:30:55.249Z,100583.75
2022-08-14T04:33:02.074Z,100585.84
2022-08-14T04:33:25.858Z,100580.38
2022-08-14T04:34:28.685Z,100583.16
2022-08-14T04:35:55.185Z,100583.50
2022-08-14T04:37:21.954Z,100582.38
2022-08-14T04:38:46.963Z,100588.69
2022-08-14T04:40:08.805Z,100590.53
2022-08-14T04:41:31.413Z,100595.84
2022-08-14T04:42:52.202Z,100597.06
2022-08-14T04:43:54.999Z,100600.00
2022-08-14T04:45:00.992Z,100592.97
2022-08-14T04:46:56.189Z,100592.63
2022-08-14T04:47:58.261Z,100595.44
2022-08-14T04:49:02.530Z,100591.19
2022-08-14T04:50:10.421Z,100598.09
2022-08-14T04:51:14.936Z,100588.19
2022-08-14T04:52:23.282Z,100588.19
2022-08-14T04:53:35.652Z,100581.34
2022-08-14T04:54:38.499Z,100586.09
2022-08-14T04:55:46.080Z,100579.28
2022-08-14T04:56:52.239Z,100583.31
2022-08-14T04:57:58.469Z,100590.53
2022-08-14T04:59:10.100Z,100581.75
2022-08-14T05:00:16.217Z,100576.09
2022-08-14T05:01:20.432Z,100587.97
2022-08-14T05:02:25.667Z,100592.72
2022-08-14T05:03:30.273Z,100589.81
2022-08-14T05:04:33.053Z,100594.69
2022-08-14T05:05:41.988Z,100587.66
2022-08-14T05:06:45.515Z,100591.28
2022-08-14T05:08:09.921Z,100594.19
2022-08-14T05:09:14.281Z,100584.50
2022-08-14T05:10:21.958Z,100584.25
2022-08-14T05:11:27.550Z,100585.97
2022-08-14T05:13:12.633Z,100586.09
2022-08-14T05:14:33.934Z,100585.53
2022-08-14T05:15:14.887Z,100589.44
2022-08-14T05:16:17.356Z,100591.09
2022-08-14T05:17:19.523Z,100588.97
2022-08-14T05:19:19.161Z,100587.38
2022-08-14T05:21:04.409Z,100589.09
2022-08-14T05:21:57.554Z,100593.81
2022-08-14T05:22:38.503Z,100593.94
2022-08-14T05:23:41.167Z,100586.56
2022-08-14T05:24:44.166Z,100590.03
2022-08-14T05:25:48.625Z,100586.25
2022-08-14T05:26:55.325Z,100583.88
2022-08-14T05:28:00.734Z,100578.91
2022-08-14T05:29:02.867Z,100574.56
2022-08-14T05:30:16.738Z,100583.78
2022-08-14T05:31:20.396Z,100583.09
2022-08-14T05:32:27.358Z,100581.63
2022-08-14T05:33:33.192Z,100578.09
2022-08-14T05:34:37.510Z,100581.84
2022-08-14T05:35:42.436Z,100585.16
2022-08-14T05:36:50.412Z,100584.53
2022-08-14T05:38:01.499Z,100584.16
2022-08-14T05:39:13.027Z,100583.09
2022-08-14T05:40:18.920Z,100585.03
2022-08-14T05:41:21.906Z,100578.63
2022-08-14T05:42:29.031Z,100594.13
2022-08-14T05:43:41.365Z,100585.84
2022-08-14T05:44:47.140Z,100584.22
2022-08-14T05:45:51.768Z,100585.88
2022-08-14T05:46:53.907Z,100587.34
2022-08-14T05:47:57.187Z,100584.47
2022-08-14T05:49:01.930Z,100590.53
2022-08-14T05:50:17.668Z,100590.44
2022-08-14T05:51:21.981Z,100585.34
2022-08-14T05:52:38.358Z,100580.97
2022-08-14T05:53:42.253Z,100578.06
2022-08-14T05:54:44.756Z,100588.50
2022-08-14T05:55:49.908Z,100582.72
2022-08-14T05:56:55.301Z,100584.16
2022-08-14T05:58:01.061Z,100585.22
2022-08-14T05:59:03.502Z,100582.22
2022-08-14T06:00:09.123Z,100582.28
2022-08-14T06:01:15.650Z,100588.88
2022-08-14T06:02:17.836Z,100579.19
2022-08-14T06:03:24.098Z,100577.81
2022-08-14T06:04:26.762Z,100575.19
2022-08-14T06:05:31.535Z,100576.44
2022-08-14T06:06:38.478Z,100583.09
2022-08-14T06:07:42.267Z,100585.88
2022-08-14T06:08:47.630Z,100574.00
2022-08-14T06:09:51.111Z,100581.28
2022-08-14T06:11:03.125Z,100587.34
2022-08-14T06:12:06.556Z,100578.34
2022-08-14T06:13:09.285Z,100576.25
2022-08-14T06:14:18.801Z,100576.41
2022-08-14T06:15:29.663Z,100575.91
2022-08-14T06:16:33.063Z,100571.75
2022-08-14T06:18:04.436Z,100575.66
2022-08-14T06:19:06.737Z,100581.91
2022-08-14T06:20:14.827Z,100574.25
2022-08-14T06:21:17.505Z,100577.44
2022-08-14T06:22:19.967Z,100582.34
2022-08-14T06:23:22.946Z,100579.75
2022-08-14T06:24:25.965Z,100578.81
2022-08-14T06:25:28.986Z,100568.84
2022-08-14T06:26:31.771Z,100578.88
2022-08-14T06:27:52.173Z,100574.41
2022-08-14T06:28:54.919Z,100575.66
2022-08-14T06:29:59.815Z,100568.50
2022-08-14T06:31:01.856Z,100567.84
2022-08-14T06:32:36.536Z,100576.00
2022-08-14T06:35:01.419Z,100573.66
2022-08-14T06:35:10.796Z,100574.53
2022-08-14T06:36:12.958Z,100571.63
2022-08-14T06:37:20.674Z,100566.31
2022-08-14T06:38:23.936Z,100572.53
2022-08-14T06:39:36.626Z,100571.56
2022-08-14T06:40:40.348Z,100576.75
2022-08-14T06:41:59.413Z,100567.16
2022-08-14T06:43:06.984Z,100576.88
2022-08-14T06:44:10.179Z,100572.81
2022-08-14T06:45:13.354Z,100566.94
2022-08-14T06:46:32.264Z,100575.06
2022-08-14T06:47:42.490Z,100569.78
2022-08-14T06:48:49.498Z,100577.63
2022-08-14T06:49:56.531Z,100575.53
2022-08-14T06:51:00.602Z,100567.91
2022-08-14T06:52:03.299Z,100574.41
2022-08-14T06:53:07.881Z,100572.03
2022-08-14T06:54:09.963Z,100574.41
2022-08-14T06:55:14.027Z,100568.66
2022-08-14T06:56:16.997Z,100566.56
2022-08-14T06:57:21.624Z,100566.03
2022-08-14T06:58:28.712Z,100568.00
2022-08-14T06:59:31.208Z,100565.44
2022-08-14T07:00:35.875Z,100569.06
2022-08-14T07:01:56.858Z,100576.00
2022-08-14T07:03:19.431Z,100569.50
2022-08-14T07:04:42.536Z,100580.16
2022-08-14T07:05:57.598Z,100566.13
2022-08-14T07:07:00.544Z,100573.53
2022-08-14T07:08:05.968Z,100567.94
2022-08-14T07:09:10.922Z,100572.81
2022-08-14T07:10:17.264Z,100563.16
2022-08-14T07:11:19.988Z,100576.59
2022-08-14T07:12:35.001Z,100571.28
2022-08-14T07:13:45.228Z,100566.47
2022-08-14T07:14:53.763Z,100562.31
2022-08-14T07:16:05.589Z,100567.13
2022-08-14T07:17:11.136Z,100561.34
2022-08-14T07:18:14.016Z,100562.81
2022-08-14T07:19:18.037Z,100571.25
2022-08-14T07:20:31.022Z,100571.06
2022-08-14T07:21:35.107Z,100561.19
2022-08-14T07:22:49.919Z,100555.13
2022-08-14T07:23:59.101Z,100559.78
2022-08-14T07:25:01.360Z,100560.31
2022-08-14T07:26:05.921Z,100557.53
2022-08-14T07:27:08.291Z,100557.97
2022-08-14T07:28:20.443Z,100553.34
2022-08-14T07:29:26.228Z,100555.63
2022-08-14T07:30:33.727Z,100553.78
2022-08-14T07:31:37.573Z,100553.50
2022-08-14T07:32:40.440Z,100553.78
2022-08-14T07:33:51.743Z,100550.25
2022-08-14T07:34:53.841Z,100554.13
2022-08-14T07:36:03.328Z,100549.91
2022-08-14T07:37:25.397Z,100561.28
2022-08-14T07:38:33.999Z,100558.63
2022-08-14T07:39:38.808Z,100553.44
2022-08-14T07:40:45.572Z,100553.41
2022-08-14T07:41:52.263Z,100557.44
2022-08-14T07:43:13.485Z,100555.53
2022-08-14T07:44:29.077Z,100549.44
2022-08-14T07:45:35.759Z,100547.97
2022-08-14T07:46:40.983Z,100549.00
2022-08-14T07:47:46.562Z,100553.84
2022-08-14T07:48:57.094Z,100550.66
2022-08-14T07:50:11.863Z,100556.94
2022-08-14T07:51:20.298Z,100552.25
2022-08-14T07:52:30.661Z,100545.38
2022-08-14T07:53:39.249Z,100552.66
2022-08-14T07:54:45.916Z,100545.28
2022-08-14T07:56:00.345Z,100545.81
2022-08-14T07:57:22.336Z,100548.56
2022-08-14T07:58:30.299Z,100554.97
2022-08-14T07:59:41.042Z,100553.59
2022-08-14T08:00:45.120Z,100547.56
2022-08-14T08:01:58.599Z,100548.94
2022-08-14T08:03:01.160Z,100542.38
2022-08-14T08:04:04.624Z,100560.59
2022-08-14T08:05:21.697Z,100549.22
2022-08-14T08:06:24.216Z,100560.00
2022-08-14T08:07:30.946Z,100557.97
2022-08-14T08:08:33.411Z,100555.06
2022-08-14T08:09:37.400Z,100545.06
2022-08-14T08:10:57.291Z,100549.31
2022-08-14T08:12:09.343Z,100542.03
2022-08-14T08:13:23.936Z,100547.00
2022-08-14T08:14:27.205Z,100552.06
2022-08-14T08:15:37.328Z,100546.56
2022-08-14T08:16:39.283Z,100546.00
2022-08-14T08:17:53.546Z,100549.56
2022-08-14T08:19:12.499Z,100544.75
2022-08-14T08:20:20.767Z,100541.72
2022-08-14T08:21:23.332Z,100548.97
2022-08-14T08:22:32.308Z,100548.94
2022-08-14T08:23:40.411Z,100546.19
2022-08-14T08:24:45.711Z,100549.53
2022-08-14T08:25:50.520Z,100548.25
2022-08-14T08:26:53.484Z,100547.97
2022-08-14T08:28:08.461Z,100547.63
2022-08-14T08:29:18.693Z,100549.47
2022-08-14T08:30:22.753Z,100534.94
2022-08-14T08:31:32.558Z,100540.44
2022-08-14T08:32:44.470Z,100534.19
2022-08-14T08:33:52.853Z,100525.16
2022-08-14T08:34:56.771Z,100531.44
2022-08-14T08:36:06.037Z,100526.53
2022-08-14T08:37:10.241Z,100531.97
2022-08-14T08:39:16.526Z,100535.41
2022-08-14T08:40:03.228Z,100534.47
2022-08-14T08:41:09.608Z,100541.53
2022-08-14T08:42:13.711Z,100531.84
2022-08-14T08:43:18.417Z,100533.25
2022-08-14T08:44:31.928Z,100527.72
2022-08-14T08:45:37.083Z,100528.88
2022-08-14T08:46:40.279Z,100535.63
2022-08-14T08:47:46.564Z,100536.88
2022-08-14T08:50:00.181Z,100528.47
2022-08-14T08:51:05.067Z,100518.56
2022-08-14T08:52:15.294Z,100521.16
2022-08-14T08:53:36.061Z,100524.50
2022-08-14T08:54:39.565Z,100523.19
2022-08-14T08:55:46.011Z,100523.97
2022-08-14T08:56:51.954Z,100524.50
2022-08-14T08:58:00.787Z,100525.75
2022-08-14T08:59:15.943Z,100523.47
2022-08-14T09:00:25.819Z,100520.88
2022-08-14T09:01:31.488Z,100517.22
2022-08-14T09:02:35.361Z,100510.47
2022-08-14T09:03:43.915Z,100517.72
2022-08-14T09:04:53.301Z,100519.19
2022-08-14T09:06:23.278Z,100518.06
2022-08-14T09:07:28.694Z,100506.78
2022-08-14T09:08:37.044Z,100502.91
2022-08-14T09:09:54.499Z,100511.78
2022-08-14T09:11:19.109Z,100504.19
2022-08-14T09:12:23.514Z,100507.63
2022-08-14T09:13:26.872Z,100503.69
2022-08-14T09:14:35.299Z,100507.00
2022-08-14T09:15:45.487Z,100512.81
2022-08-14T09:16:50.380Z,100510.16
2022-08-14T09:17:54.613Z,100507.25
2022-08-14T09:18:57.595Z,100505.75
2022-08-14T09:20:02.142Z,100511.91
2022-08-14T09:21:08.658Z,100511.44
2022-08-14T09:22:35.883Z,100508.31
2022-08-14T09:24:26.815Z,100514.09
2022-08-14T09:25:01.110Z,100502.63
2022-08-14T09:26:21.122Z,100514.09
2022-08-14T09:27:24.281Z,100506.03
2022-08-14T09:28:26.706Z,100505.25
2022-08-14T09:29:31.784Z,100503.91
2022-08-14T09:31:53.483Z,100502.91
2022-08-14T09:33:22.968Z,100510.63
2022-08-14T09:34:59.070Z,100503.06
2022-08-14T09:36:26.611Z,100504.16
2022-08-14T09:37:50.061Z,100502.75
2022-08-14T09:39:23.249Z,100494.69
2022-08-14T09:40:51.987Z,100502.59
2022-08-14T09:42:33.371Z,100496.75
2022-08-14T09:43:55.573Z,100499.38
2022-08-14T09:45:08.555Z,100498.06
2022-08-14T09:46:11.174Z,100497.03
2022-08-14T09:47:19.340Z,100501.50
2022-08-14T09:48:30.523Z,100508.25
2022-08-14T09:49:39.992Z,100500.72
2022-08-14T09:50:53.784Z,100500.50
2022-08-14T09:52:04.851Z,100498.97
2022-08-14T09:54:17.790Z,100498.19
2022-08-14T09:55:18.883Z,100501.78
2022-08-14T09:56:31.089Z,100497.84
2022-08-14T09:57:33.608Z,100500.72
2022-08-14T09:58:46.896Z,100495.03
2022-08-14T09:59:50.402Z,100491.81
2022-08-14T10:00:59.728Z,100495.09
2022-08-14T10:02:02.506Z,100504.38
2022-08-14T10:03:06.238Z,100506.91
2022-08-14T10:04:32.857Z,100503.84
2022-08-14T10:05:39.474Z,100498.84
2022-08-14T10:06:47.742Z,100488.81
2022-08-14T10:07:59.200Z,100503.81
2022-08-14T10:09:03.192Z,100496.06
2022-08-14T10:10:25.466Z,100496.50
2022-08-14T10:11:36.584Z,100497.16
2022-08-14T10:12:44.861Z,100493.09
2022-08-14T10:13:55.853Z,100498.34
2022-08-14T10:14:58.656Z,100499.84
2022-08-14T10:16:02.257Z,100496.97
2022-08-14T10:17:08.680Z,100494.66
2022-08-14T10:18:18.233Z,100496.19
2022-08-14T10:19:31.297Z,100496.13
2022-08-14T10:20:52.981Z,100494.88
2022-08-14T10:23:12.485Z,100501.91
2022-08-14T10:23:44.672Z,100504.53
2022-08-14T10:24:47.173Z,100505.84
2022-08-14T10:26:07.109Z,100504.66
2022-08-14T10:27:24.100Z,100501.63
2022-08-14T10:29:03.479Z,100503.56
2022-08-14T10:29:55.931Z,100507.84
2022-08-14T10:31:03.155Z,100502.72
2022-08-14T10:32:18.031Z,100501.72
2022-08-14T10:33:30.155Z,100497.06
2022-08-14T10:35:51.991Z,100499.94
2022-08-14T10:37:04.853Z,100498.94
2022-08-14T10:38:34.681Z,100498.19
2022-08-14T10:39:37.958Z,100502.00
2022-08-14T10:40:52.365Z,100504.97
2022-08-14T10:42:18.190Z,100496.66
2022-08-14T10:43:26.466Z,100502.22
2022-08-14T10:44:47.680Z,100498.06
2022-08-14T10:46:21.716Z,100501.06
2022-08-14T10:47:39.677Z,100498.44
2022-08-14T10:49:04.518Z,100495.09
2022-08-14T10:50:12.132Z,100492.72
2022-08-14T10:51:26.078Z,100498.13
2022-08-14T10:52:33.916Z,100499.94
2022-08-14T10:53:39.148Z,100502.41
2022-08-14T10:54:47.334Z,100495.84
2022-08-14T10:55:59.631Z,100503.25
2022-08-14T10:57:13.312Z,100492.41
2022-08-14T10:58:17.139Z,100492.06
2022-08-14T10:59:34.849Z,100485.38
2022-08-14T11:00:56.513Z,100494.69
2022-08-14T11:02:35.777Z,100493.38
2022-08-14T11:03:56.244Z,100494.09
2022-08-14T11:05:07.866Z,100496.34
2022-08-14T11:06:20.023Z,100490.63
2022-08-14T11:07:22.492Z,100487.50
2022-08-14T11:08:32.888Z,100492.59
2022-08-14T11:09:41.932Z,100491.75
2022-08-14T11:10:48.292Z,100497.38
2022-08-14T11:12:33.881Z,100500.41
2022-08-14T11:13:24.528Z,100497.53
2022-08-14T11:14:27.122Z,100485.47
2022-08-14T11:15:29.447Z,100485.47
2022-08-14T11:16:38.249Z,100490.63
2022-08-14T11:17:46.074Z,100482.56
2022-08-14T11:18:51.502Z,100482.63
2022-08-14T11:20:00.125Z,100487.13
2022-08-14T11:21:02.387Z,100485.47
2022-08-14T11:22:06.403Z,100488.88
2022-08-14T11:23:10.448Z,100483.50
2022-08-14T11:24:54.984Z,100485.34
2022-08-14T11:25:43.784Z,100479.06
2022-08-14T11:26:47.455Z,100480.69
2022-08-14T11:27:52.758Z,100486.41
2022-08-14T11:28:56.983Z,100489.06
2022-08-14T11:30:53.562Z,100479.91
2022-08-14T11:31:38.555Z,100483.34
2022-08-14T11:32:44.544Z,100480.75
2022-08-14T11:33:58.160Z,100478.00
2022-08-14T11:35:03.699Z,100468.09
2022-08-14T11:36:18.709Z,100474.50
2022-08-14T11:37:35.220Z,100470.28
2022-08-14T11:38:45.184Z,100463.72
2022-08-14T11:39:48.984Z,100475.50
2022-08-14T11:40:53.413Z,100471.47
2022-08-14T11:41:57.993Z,100464.88
2022-08-14T11:43:03.280Z,100477.41
2022-08-14T11:44:17.615Z,100464.84
2022-08-14T11:45:37.001Z,100468.16
2022-08-14T11:46:41.286Z,100473.63
2022-08-14T11:48:12.539Z,100470.59
2022-08-14T11:49:06.814Z,100472.69
2022-08-14T11:50:34.073Z,100474.47
2022-08-14T11:51:53.431Z,100473.50
2022-08-14T11:53:02.610Z,100470.63
2022-08-14T11:54:09.046Z,100475.44
2022-08-14T11:55:14.654Z,100463.47
2022-08-14T11:56:19.409Z,100468.53
2022-08-14T11:57:28.113Z,100471.22
2022-08-14T11:58:32.415Z,100470.03
2022-08-14T11:59:38.555Z,100460.09
2022-08-14T12:00:57.423Z,100463.13
2022-08-14T12:03:00.689Z,100459.28
2022-08-14T12:03:46.329Z,100454.31
2022-08-14T12:04:54.794Z,100457.03
2022-08-14T12:06:09.531Z,100460.72
2022-08-14T12:07:30.748Z,100460.25
2022-08-14T12:08:35.711Z,100462.19
2022-08-14T12:09:43.070Z,100460.75
2022-08-14T12:10:46.661Z,100468.72
2022-08-14T12:11:51.639Z,100458.59
2022-08-14T12:12:56.833Z,100466.56
2022-08-14T12:14:08.921Z,100454.78
2022-08-14T12:15:36.193Z,100453.31
2022-08-14T12:16:38.838Z,100448.25
2022-08-14T12:17:49.739Z,100451.00
2022-08-14T12:18:58.566Z,100448.91
2022-08-14T12:20:05.622Z,100447.41
2022-08-14T12:21:36.770Z,100451.81
2022-08-14T12:22:43.115Z,100456.19
2022-08-14T12:23:47.891Z,100446.88
2022-08-14T12:24:55.747Z,100444.09
2022-08-14T12:26:31.919Z,100447.41
2022-08-14T12:27:59.273Z,100453.94
2022-08-14T12:29:13.354Z,100444.09
2022-08-14T12:30:27.057Z,100454.78
2022-08-14T12:31:44.764Z,100455.66
2022-08-14T12:32:49.301Z,100456.44
2022-08-14T12:34:00.191Z,100454.75
2022-08-14T12:35:02.236Z,100452.69
2022-08-14T12:36:11.594Z,100448.00
2022-08-14T12:37:17.377Z,100458.16
2022-08-14T12:38:21.235Z,100452.47
2022-08-14T12:39:24.074Z,100447.59
2022-08-14T12:40:31.523Z,100448.28
2022-08-14T12:41:38.556Z,100444.91
2022-08-14T12:42:47.493Z,100449.25
2022-08-14T12:44:04.843Z,100453.38
2022-08-14T12:45:12.354Z,100442.13
2022-08-14T12:46:37.781Z,100451.91
2022-08-14T12:47:42.776Z,100442.41
2022-08-14T12:48:50.344Z,100450.88
2022-08-14T12:49:57.503Z,100441.38
2022-08-14T12:51:00.028Z,100447.97
2022-08-14T12:52:03.763Z,100448.53
2022-08-14T12:53:17.275Z,100438.25
2022-08-14T12:54:28.455Z,100441.16
2022-08-14T12:56:17.451Z,100433.25
2022-08-14T12:57:19.854Z,100440.38
2022-08-14T12:58:47.461Z,100436.88
2022-08-14T12:59:53.596Z,100438.16
2022-08-14T13:01:17.055Z,100437.97
2022-08-14T13:02:26.377Z,100435.56
2022-08-14T13:03:30.491Z,100445.53
2022-08-14T13:04:35.456Z,100443.75
2022-08-14T13:05:38.182Z,100436.91
2022-08-14T13:06:50.940Z,100439.44
2022-08-14T13:07:54.136Z,100433.88
2022-08-14T13:09:00.327Z,100435.16
2022-08-14T13:10:46.202Z,100438.63
2022-08-14T13:11:45.299Z,100441.13
2022-08-14T13:13:11.896Z,100445.06
2022-08-14T13:14:17.244Z,100441.13
2022-08-14T13:15:19.929Z,100445.59
2022-08-14T13:16:33.664Z,100437.41
2022-08-14T13:17:55.983Z,100436.47
2022-08-14T13:19:01.887Z,100433.72
2022-08-14T13:20:09.998Z,100430.72
2022-08-14T13:21:14.062Z,100438.06
2022-08-14T13:22:32.091Z,100437.28
2022-08-14T13:23:37.530Z,100436.00
2022-08-14T13:24:41.589Z,100429.50
2022-08-14T13:25:55.543Z,100430.78
2022-08-14T13:27:00.612Z,100430.50
2022-08-14T13:28:03.451Z,100427.78
2022-08-14T13:29:06.586Z,100429.59
2022-08-14T13:30:14.481Z,100425.41
2022-08-14T13:31:30.050Z,100423.91
2022-08-14T13:32:34.220Z,100428.00
2022-08-14T13:33:37.377Z,100420.72
2022-08-14T13:34:46.071Z,100433.94
2022-08-14T13:35:51.324Z,100429.22
2022-08-14T13:37:03.639Z,100424.16
2022-08-14T13:38:07.089Z,100427.06
2022-08-14T13:39:19.675Z,100426.78
2022-08-14T13:40:26.107Z,100431.22
2022-08-14T13:41:36.564Z,100423.72
2022-08-14T13:42:44.700Z,100427.84
2022-08-14T13:43:59.451Z,100417.97
2022-08-14T13:45:09.037Z,100423.66
2022-08-14T13:46:14.756Z,100425.50
2022-08-14T13:47:46.765Z,100413.03
2022-08-14T13:49:14.854Z,100417.97
2022-08-14T13:50:20.842Z,100422.16
2022-08-14T13:51:27.686Z,100413.13
2022-08-14T13:52:52.136Z,100419.59
2022-08-14T13:54:10.526Z,100415.66
2022-08-14T13:55:18.549Z,100419.16
2022-08-14T13:56:36.698Z,100412.41
2022-08-14T13:57:49.700Z,100424.22
2022-08-14T13:59:06.583Z,100413.25
2022-08-14T14:00:13.075Z,100412.38
2022-08-14T14:01:18.225Z,100411.63
2022-08-14T14:02:33.654Z,100412.88
2022-08-14T14:03:38.134Z,100413.78
2022-08-14T14:04:46.165Z,100412.88
2022-08-14T14:05:55.358Z,100411.34
2022-08-14T14:07:04.147Z,100406.13
2022-08-14T14:08:18.515Z,100417.19
2022-08-14T14:09:32.216Z,100411.09
2022-08-14T14:10:40.357Z,100406.59
2022-08-14T14:11:52.859Z,100406.75
2022-08-14T14:12:57.898Z,100410.81
2022-08-14T14:14:04.977Z,100407.75
2022-08-14T14:15:12.760Z,100407.75
2022-08-14T14:16:26.582Z,100404.44
2022-08-14T14:17:35.115Z,100400.28
2022-08-14T14:18:42.650Z,100399.28
2022-08-14T14:19:47.887Z,100408.13
2022-08-14T14:20:53.171Z,100406.25
2022-08-14T14:22:06.585Z,100400.28
2022-08-14T14:23:17.549Z,100398.13
2022-08-14T14:24:20.257Z,100407.41
2022-08-14T14:25:22.609Z,100406.59
2022-08-14T14:26:26.901Z,100399.53
2022-08-14T14:27:40.321Z,100393.28
2022-08-14T14:28:50.808Z,100401.09
2022-08-14T14:30:00.456Z,100400.81
2022-08-14T14:31:10.101Z,100401.22
2022-08-14T14:32:21.316Z,100396.59
2022-08-14T14:34:52.861Z,100394.97
2022-08-14T14:36:02.034Z,100394.09
2022-08-14T14:37:12.667Z,100393.59
2022-08-14T14:38:21.841Z,100391.25
2022-08-14T14:40:52.627Z,100387.69
2022-08-14T14:41:05.560Z,100393.69
2022-08-14T14:42:09.442Z,100395.81
2022-08-14T14:43:17.663Z,100394.53
2022-08-14T14:44:34.591Z,100391.31
2022-08-14T14:45:37.929Z,100390.03
2022-08-14T14:46:43.577Z,100396.81
2022-08-14T14:47:49.480Z,100388.19
2022-08-14T14:48:53.957Z,100391.81
2022-08-14T14:50:00.567Z,100391.31
2022-08-14T14:51:03.802Z,100392.41
2022-08-14T14:52:10.916Z,100386.06
2022-08-14T14:53:27.700Z,100385.25
2022-08-14T14:54:37.624Z,100384.69
2022-08-14T14:56:46.814Z,100382.09
2022-08-14T14:57:17.378Z,100380.56
2022-08-14T14:58:21.467Z,100381.38
2022-08-14T14:59:25.791Z,100376.00
2022-08-14T15:00:35.214Z,100379.09
2022-08-14T15:01:48.184Z,100373.16
2022-08-14T15:02:57.808Z,100381.84
2022-08-14T15:04:07.903Z,100382.09
2022-08-14T15:05:23.405Z,100377.00
2022-08-14T15:06:34.430Z,100377.28
2022-08-14T15:07:39.197Z,100377.78
2022-08-14T15:08:56.309Z,100374.06
2022-08-14T15:10:00.943Z,100374.88
2022-08-14T15:11:03.250Z,100370.72
2022-08-14T15:12:16.435Z,100375.94
2022-08-14T15:13:28.270Z,100366.31
2022-08-14T15:14:56.069Z,100379.84
2022-08-14T15:15:59.826Z,100370.28
2022-08-14T15:17:02.944Z,100373.88
2022-08-14T15:18:36.654Z,100375.06
2022-08-14T15:19:33.574Z,100377.53
2022-08-14T15:20:36.475Z,100369.78
2022-08-14T15:21:39.520Z,100374.69
2022-08-14T15:22:51.458Z,100367.44
2022-08-14T15:23:54.048Z,100373.16
2022-08-14T15:24:59.644Z,100376.84
2022-08-14T15:26:03.469Z,100372.69
2022-08-14T15:27:11.519Z,100372.50
2022-08-14T15:28:21.477Z,100373.09
2022-08-14T15:29:26.479Z,100371.22
2022-08-14T15:30:32.526Z,100375.06
2022-08-14T15:31:36.597Z,100378.41
2022-08-14T15:32:41.043Z,100376.47
2022-08-14T15:34:44.380Z,100374.13
2022-08-14T15:35:29.827Z,100374.13
2022-08-14T15:36:37.181Z,100372.53
2022-08-14T15:37:42.469Z,100367.84
2022-08-14T15:38:46.585Z,100366.28
2022-08-14T15:39:52.635Z,100371.78
2022-08-14T15:40:56.306Z,100380.13
2022-08-14T15:42:14.523Z,100373.16
2022-08-14T15:43:22.489Z,100379.59
2022-08-14T15:44:29.924Z,100374.69
2022-08-14T15:45:36.528Z,100372.63
2022-08-14T15:46:45.432Z,100372.13
2022-08-14T15:47:51.093Z,100376.84
2022-08-14T15:48:55.022Z,100377.63
2022-08-14T15:50:06.085Z,100375.56
2022-08-14T15:51:10.792Z,100378.41
2022-08-14T15:52:15.844Z,100378.84
2022-08-14T15:53:36.726Z,100372.25
2022-08-14T15:54:41.996Z,100376.09
2022-08-14T15:55:44.372Z,100370.91
2022-08-14T15:56:59.925Z,100366.28
2022-08-14T15:58:06.456Z,100373.56
2022-08-14T15:59:13.116Z,100369.41
2022-08-14T16:00:44.211Z,100376.41
2022-08-14T16:01:54.480Z,100367.56
2022-08-14T16:02:57.207Z,100373.75
2022-08-14T16:04:04.089Z,100365.41
2022-08-14T16:05:15.071Z,100367.00
2022-08-14T16:06:26.827Z,100374.94
2022-08-14T16:07:30.316Z,100367.38
2022-08-14T16:08:35.925Z,100371.78
2022-08-14T16:09:38.939Z,100376.88
2022-08-14T16:10:46.251Z,100366.50
2022-08-14T16:11:53.720Z,100373.16
2022-08-14T16:12:57.195Z,100369.03
2022-08-14T16:14:02.345Z,100378.84
2022-08-14T16:15:10.104Z,100377.00
2022-08-14T16:16:47.517Z,100376.41
2022-08-14T16:17:56.412Z,100374.56